ATMO2: Muddy Boggy Creek at Atoka

Data processed at Fri Dec 19 23:53:52 2014 Central Standard Time


All information presented herein is the property of the government of the United States of America and may be revised or deleted at any time without prior notice.
Dissemination of this information without the expressed written consent of the Public Affairs Office, Tulsa District U.S. Army Corps of Engineers is strictly prohibited.
These data are gathered electronically and, as presented, have not undergone any form of quality control. These data are not guaranteed to be valid or correct.
Go to home page.
Go to station list.
Go to station map.

Downstream station:

Previous Day
Next Day
Current Day

Display graphics.
Display DCP transmissions.


    
    SHEF ID:       ATMO2     Muddy Boggy Creek at Atoka
    STATION TYPE:  STREAM GAGE
    
                   PRECIP     STAGE  RIV-FLOW   VOLTAGE
                   INCHES      FEET       CFS     VOLTS
                     GOES      GOES      GOES      GOES
       (Cen)
    12/19 01:00      0.00     18.49       543     12.80
    12/19 02:00      0.00     18.49       543     12.70
    12/19 03:00      0.00     18.48       541     12.70
    12/19 04:00      0.00     18.46       536     12.70
    12/19 05:00      0.00     18.42       527     12.70
    12/19 06:00      0.00     18.37       517     12.70
    12/19 07:00      0.00     18.31       504     12.70
    12/19 08:00      0.00     18.24       484     12.70
    12/19 09:00      0.00     18.17       464     12.80
    12/19 10:00      0.00     18.09       443     13.10
    12/19 11:00      0.00     18.00       419     13.20
    12/19 12:00      0.00     17.92       399     13.40
    12/19 13:00      0.00     17.84       380     13.20
    12/19 14:00      0.00     17.75       360     13.20
    12/19 15:00      0.00     17.67       344     13.10
    12/19 16:00      0.00     17.58       328     12.90
    12/19 17:00      0.00     17.50       314     12.80
    12/19 18:00      0.00     17.42       301     12.80
    12/19 19:00      0.00     17.35       291     12.80
    12/19 20:00      0.00     17.28       280     12.80
    12/19 21:00      0.00     17.21       270     12.70
    12/19 22:00      0.00     17.15       261     12.70
    12/19 23:00      0.00     17.09       253     12.70
    12/20 00:00      ----      ----      ----      ----